Terminal Aerodrome Forecast
Issued by NWS

Home | Current Version | Previous Version | Graphics & Text | Print | Product List | Glossary On
Versions: 1 2 3 4 5 6 7 8 9 10 11 12 13 14
766
FTUS43 KMPX 301946 AAA
TAFRNH
TAF AMD
KRNH 301946Z 3020/0118 36007KT P6SM OVC020
      TEMPO 3020/3022 6SM -RA BR OVC014
     FM010000 32006KT P6SM VCSH OVC008
     FM010800 30006KT P6SM OVC010
     FM011200 33008KT P6SM OVC015=

USA.gov is the U.S. government's official web portal to all federal, state and local government web resources and services.